createdAt,value
2022-07-31T00:00:25.928Z,20.10
2022-07-31T00:02:53.165Z,20.10
2022-07-31T00:05:20.555Z,20.00
2022-07-31T00:07:47.899Z,20.10
2022-07-31T00:10:15.735Z,20.10
2022-07-31T00:12:43.494Z,20.10
2022-07-31T00:15:12.762Z,20.10
2022-07-31T00:17:41.903Z,20.10
2022-07-31T00:20:14.676Z,20.10
2022-07-31T00:22:46.966Z,20.10
2022-07-31T00:25:16.959Z,20.10
2022-07-31T00:27:44.942Z,20.10
2022-07-31T00:30:17.096Z,20.00
2022-07-31T00:32:45.409Z,20.00
2022-07-31T00:35:14.389Z,20.00
2022-07-31T00:37:42.785Z,20.00
2022-07-31T00:40:13.291Z,20.00
2022-07-31T00:42:40.742Z,20.00
2022-07-31T00:45:10.384Z,20.00
2022-07-31T00:47:40.997Z,20.10
2022-07-31T00:50:09.314Z,20.00
2022-07-31T00:52:36.796Z,20.00
2022-07-31T00:55:04.788Z,20.00
2022-07-31T00:57:32.116Z,19.90
2022-07-31T00:59:59.501Z,19.90
2022-07-31T01:02:26.861Z,19.90
2022-07-31T01:04:54.115Z,19.90
2022-07-31T01:07:21.349Z,19.90
2022-07-31T01:09:50.983Z,19.90
2022-07-31T01:12:55.094Z,19.90
2022-07-31T01:15:26.040Z,19.80
2022-07-31T01:17:55.427Z,19.80
2022-07-31T01:20:23.860Z,19.80
2022-07-31T01:23:25.434Z,19.80
2022-07-31T01:26:48.356Z,19.80
2022-07-31T01:29:29.643Z,19.70
2022-07-31T01:32:10.802Z,19.70
2022-07-31T01:34:49.933Z,19.70
2022-07-31T01:37:50.657Z,19.70
2022-07-31T01:40:33.732Z,19.70
2022-07-31T01:43:16.460Z,19.60
2022-07-31T01:45:47.182Z,19.70
2022-07-31T01:48:17.299Z,19.60
2022-07-31T01:50:48.628Z,19.60
2022-07-31T01:53:20.783Z,19.60
2022-07-31T01:56:02.874Z,19.60
2022-07-31T01:58:38.927Z,19.50
2022-07-31T02:01:11.465Z,19.40
2022-07-31T02:03:43.750Z,19.40
2022-07-31T02:06:19.359Z,19.40
2022-07-31T02:08:51.883Z,19.40
2022-07-31T02:11:20.924Z,19.50
2022-07-31T02:13:50.216Z,19.50
2022-07-31T02:16:19.992Z,19.50
2022-07-31T02:18:51.195Z,19.50
2022-07-31T02:21:18.785Z,19.40
2022-07-31T02:23:46.275Z,19.50
2022-07-31T02:26:17.122Z,19.40
2022-07-31T02:28:46.878Z,19.50
2022-07-31T02:31:17.255Z,19.40
2022-07-31T02:33:48.078Z,19.40
2022-07-31T02:36:18.100Z,19.30
2022-07-31T02:38:46.537Z,19.30
2022-07-31T02:41:16.768Z,19.40
2022-07-31T02:43:45.715Z,19.30
2022-07-31T02:46:14.756Z,19.30
2022-07-31T02:48:44.462Z,19.30
2022-07-31T02:51:12.451Z,19.40
2022-07-31T02:53:40.668Z,19.40
2022-07-31T02:56:09.433Z,19.40
2022-07-31T02:58:43.073Z,19.40
2022-07-31T03:01:10.661Z,19.40
2022-07-31T03:03:38.055Z,19.50
2022-07-31T03:06:05.515Z,19.50
2022-07-31T03:08:33.868Z,19.50
2022-07-31T03:11:01.573Z,19.50
2022-07-31T03:13:32.177Z,19.50
2022-07-31T03:16:00.145Z,19.50
2022-07-31T03:18:27.619Z,19.60
2022-07-31T03:20:56.920Z,19.60
2022-07-31T03:23:27.625Z,19.60
2022-07-31T03:25:55.587Z,19.60
2022-07-31T03:28:23.067Z,19.60
2022-07-31T03:30:55.267Z,19.50
2022-07-31T03:33:23.914Z,19.60
2022-07-31T03:35:53.330Z,19.60
2022-07-31T03:38:39.252Z,19.50
2022-07-31T03:41:08.083Z,19.50
2022-07-31T03:43:47.072Z,19.50
2022-07-31T03:46:22.491Z,19.60
2022-07-31T03:48:52.830Z,19.60
2022-07-31T03:51:20.700Z,19.60
2022-07-31T03:53:49.145Z,19.60
2022-07-31T03:56:18.056Z,19.60
2022-07-31T03:58:46.063Z,19.60
2022-07-31T04:01:20.754Z,19.60
2022-07-31T04:03:48.196Z,19.60
2022-07-31T04:06:16.647Z,19.60
2022-07-31T04:08:44.007Z,19.60
2022-07-31T04:11:11.352Z,19.60
2022-07-31T04:13:38.603Z,19.60
2022-07-31T04:16:05.855Z,19.60
2022-07-31T04:18:33.222Z,19.60
2022-07-31T04:21:00.924Z,19.60
2022-07-31T04:23:32.530Z,19.50
2022-07-31T04:26:00.464Z,19.60
2022-07-31T04:28:27.824Z,19.50
2022-07-31T04:30:55.076Z,19.50
2022-07-31T04:33:22.546Z,19.50
2022-07-31T04:35:49.797Z,19.50
2022-07-31T04:38:17.157Z,19.50
2022-07-31T04:40:44.998Z,19.60
2022-07-31T04:43:12.870Z,19.60
2022-07-31T04:45:40.090Z,19.50
2022-07-31T04:48:07.345Z,19.60
2022-07-31T04:50:36.263Z,19.60
2022-07-31T04:53:04.460Z,19.60
2022-07-31T04:55:31.820Z,19.50
2022-07-31T04:57:59.072Z,19.60
2022-07-31T05:00:27.174Z,19.50
2022-07-31T05:02:54.632Z,19.60
2022-07-31T05:05:21.980Z,19.60
2022-07-31T05:07:49.254Z,19.60
2022-07-31T05:10:35.065Z,19.50
2022-07-31T05:13:02.320Z,19.50
2022-07-31T05:15:29.689Z,19.50
2022-07-31T05:17:56.933Z,19.50
2022-07-31T05:20:24.286Z,19.50
2022-07-31T05:22:52.127Z,19.50
2022-07-31T05:25:19.506Z,19.50
2022-07-31T05:27:46.897Z,19.50
2022-07-31T05:30:17.488Z,19.40
2022-07-31T05:32:58.631Z,19.50
2022-07-31T05:35:26.115Z,19.40
2022-07-31T05:37:53.356Z,19.50
2022-07-31T05:40:20.736Z,19.50
2022-07-31T05:42:48.065Z,19.50
2022-07-31T05:45:15.318Z,19.50
2022-07-31T05:47:42.575Z,19.60
2022-07-31T05:50:10.676Z,19.50
2022-07-31T05:52:38.149Z,19.60
2022-07-31T05:55:06.209Z,19.60
2022-07-31T05:57:34.391Z,19.60
2022-07-31T06:00:03.744Z,19.70
2022-07-31T06:02:31.552Z,19.70
2022-07-31T06:05:08.762Z,19.70
2022-07-31T06:07:35.989Z,19.80
2022-07-31T06:10:04.588Z,19.80
2022-07-31T06:12:31.898Z,19.90
2022-07-31T06:15:00.257Z,19.90
2022-07-31T06:17:40.415Z,19.90
2022-07-31T06:20:13.939Z,20.00
2022-07-31T06:22:44.033Z,20.10
2022-07-31T06:25:12.615Z,20.20
2022-07-31T06:27:42.372Z,20.30
2022-07-31T06:30:10.968Z,20.30
2022-07-31T06:32:38.786Z,20.30
2022-07-31T06:35:07.349Z,20.40
2022-07-31T06:37:34.935Z,20.40
2022-07-31T06:40:03.158Z,20.40
2022-07-31T06:42:30.276Z,20.40
2022-07-31T06:44:57.625Z,20.40
2022-07-31T06:47:26.803Z,20.50
2022-07-31T06:49:55.239Z,20.50
2022-07-31T06:52:22.600Z,20.50
2022-07-31T06:54:50.092Z,20.50
2022-07-31T06:57:17.705Z,20.60
2022-07-31T06:59:45.057Z,20.70
2022-07-31T07:02:12.528Z,20.70
2022-07-31T07:05:04.870Z,20.70
2022-07-31T07:07:32.157Z,20.70
2022-07-31T07:09:59.814Z,20.70
2022-07-31T07:12:27.178Z,20.80
2022-07-31T07:14:55.875Z,20.80
2022-07-31T07:17:28.585Z,20.90
2022-07-31T07:19:56.364Z,20.90
2022-07-31T07:22:31.627Z,20.90
2022-07-31T07:25:01.265Z,21.00
2022-07-31T07:27:28.653Z,21.00
2022-07-31T07:29:57.211Z,21.00
2022-07-31T07:32:24.461Z,21.00
2022-07-31T07:34:59.761Z,21.00
2022-07-31T07:37:28.915Z,21.00
2022-07-31T07:40:02.553Z,21.10
2022-07-31T07:42:31.909Z,21.10
2022-07-31T07:44:59.371Z,21.10
2022-07-31T07:48:02.294Z,21.20
2022-07-31T07:50:17.866Z,21.20
2022-07-31T07:52:45.250Z,21.30
2022-07-31T07:55:14.163Z,21.40
2022-07-31T07:57:46.328Z,21.40
2022-07-31T08:00:14.781Z,21.40
2022-07-31T08:02:44.868Z,21.30
2022-07-31T08:05:30.968Z,21.30
2022-07-31T08:07:59.894Z,21.30
2022-07-31T08:10:27.377Z,21.40
2022-07-31T08:12:54.975Z,21.40
2022-07-31T08:15:22.851Z,21.30
2022-07-31T08:17:50.059Z,21.30
2022-07-31T08:20:17.547Z,21.30
2022-07-31T08:22:44.899Z,21.40
2022-07-31T08:25:14.308Z,21.50
2022-07-31T08:27:42.533Z,21.40
2022-07-31T08:30:10.845Z,21.30
2022-07-31T08:32:38.739Z,21.30
2022-07-31T08:35:06.769Z,21.40
2022-07-31T08:37:51.816Z,21.40
2022-07-31T08:40:22.278Z,21.40
2022-07-31T08:42:49.629Z,21.50
2022-07-31T08:45:16.981Z,21.50
2022-07-31T08:47:48.316Z,21.40
2022-07-31T08:50:16.938Z,21.40
2022-07-31T08:52:45.917Z,21.40
2022-07-31T09:08:15.044Z,21.40
2022-07-31T09:10:47.725Z,22.00
2022-07-31T09:13:18.817Z,21.90
2022-07-31T09:15:46.558Z,21.70
2022-07-31T09:18:22.116Z,21.70
2022-07-31T09:21:00.504Z,21.70
2022-07-31T09:23:30.429Z,21.70
2022-07-31T09:26:05.994Z,21.50
2022-07-31T09:28:45.890Z,21.30
2022-07-31T09:31:16.398Z,21.20
2022-07-31T09:33:46.285Z,21.20
2022-07-31T09:36:14.232Z,21.10
2022-07-31T09:38:44.610Z,21.10
2022-07-31T09:41:56.258Z,21.10
2022-07-31T09:44:09.516Z,21.10
2022-07-31T09:46:46.999Z,21.10
2022-07-31T09:49:14.995Z,21.10
2022-07-31T09:51:44.571Z,21.00
2022-07-31T09:54:30.180Z,21.00
2022-07-31T09:56:58.128Z,20.90
2022-07-31T09:59:26.813Z,20.90
2022-07-31T10:01:54.808Z,20.90
2022-07-31T10:04:23.728Z,20.90
2022-07-31T10:06:52.644Z,20.90
2022-07-31T10:09:21.794Z,20.90
2022-07-31T10:11:52.176Z,20.90
2022-07-31T10:14:27.648Z,21.00
2022-07-31T10:17:00.192Z,20.90
2022-07-31T10:19:37.292Z,20.90
2022-07-31T10:22:05.834Z,20.90
2022-07-31T10:24:40.414Z,20.90
2022-07-31T10:27:09.625Z,21.00
2022-07-31T10:29:41.134Z,20.90
2022-07-31T10:32:09.414Z,20.90
2022-07-31T10:34:37.830Z,21.10
2022-07-31T10:37:20.671Z,21.10
2022-07-31T10:40:08.500Z,21.20
2022-07-31T10:42:55.260Z,21.30
2022-07-31T10:45:23.865Z,21.20
2022-07-31T10:47:55.644Z,21.30
2022-07-31T10:50:25.797Z,21.30
2022-07-31T10:52:56.194Z,21.20
2022-07-31T10:55:27.494Z,21.20
2022-07-31T10:57:56.290Z,21.20
2022-07-31T11:00:29.695Z,21.30
2022-07-31T11:02:57.502Z,21.40
2022-07-31T11:05:27.718Z,21.50
2022-07-31T11:08:04.080Z,21.60
2022-07-31T11:10:34.213Z,21.60
2022-07-31T11:13:07.955Z,21.70
2022-07-31T11:15:37.559Z,21.70
2022-07-31T11:18:27.729Z,21.80
2022-07-31T11:21:13.683Z,21.90
2022-07-31T11:23:55.990Z,21.70
2022-07-31T11:26:33.714Z,21.80
2022-07-31T11:29:58.735Z,21.80
2022-07-31T11:32:16.486Z,21.90
2022-07-31T11:34:51.009Z,21.70
2022-07-31T11:37:25.169Z,21.80
2022-07-31T11:39:56.073Z,21.90
2022-07-31T11:42:32.052Z,21.80
2022-07-31T11:45:10.947Z,21.90
2022-07-31T11:48:11.956Z,21.90
2022-07-31T11:50:44.711Z,22.00
2022-07-31T11:53:13.135Z,22.00
2022-07-31T11:55:50.869Z,22.00
2022-07-31T11:58:22.948Z,22.20
2022-07-31T12:01:02.496Z,22.00
2022-07-31T12:03:39.556Z,22.10
2022-07-31T12:06:09.974Z,22.20
2022-07-31T12:08:38.112Z,22.10
2022-07-31T12:11:09.639Z,22.30
2022-07-31T12:13:39.170Z,22.50
2022-07-31T12:16:11.349Z,22.70
2022-07-31T12:19:00.507Z,22.90
2022-07-31T12:21:40.609Z,23.00
2022-07-31T12:24:13.914Z,23.00
2022-07-31T12:26:50.308Z,22.90
2022-07-31T12:29:17.732Z,22.90
2022-07-31T12:31:46.476Z,22.70
2022-07-31T12:34:29.745Z,22.80
2022-07-31T12:37:10.725Z,22.90
2022-07-31T12:40:01.428Z,22.90
2022-07-31T12:42:41.943Z,22.80
2022-07-31T12:45:19.519Z,22.90
2022-07-31T12:47:51.726Z,22.80
2022-07-31T12:50:20.789Z,22.80
2022-07-31T12:52:48.334Z,22.70
2022-07-31T12:55:17.024Z,22.90
2022-07-31T12:57:50.684Z,22.90
2022-07-31T13:00:22.755Z,22.80
2022-07-31T13:02:51.939Z,22.90
2022-07-31T13:05:19.774Z,22.80
2022-07-31T13:07:47.446Z,22.80
2022-07-31T13:10:21.912Z,22.90
2022-07-31T13:12:53.067Z,22.80
2022-07-31T13:15:29.592Z,22.90
2022-07-31T13:18:05.106Z,22.90
2022-07-31T13:20:32.764Z,22.90
2022-07-31T13:23:01.270Z,23.00
2022-07-31T13:25:30.699Z,23.10
2022-07-31T13:27:58.864Z,23.00
2022-07-31T13:30:27.730Z,23.00
2022-07-31T13:32:54.958Z,23.10
2022-07-31T13:35:27.881Z,23.20
2022-07-31T13:37:55.920Z,23.00
2022-07-31T13:40:43.056Z,23.10
2022-07-31T13:43:10.231Z,23.10
2022-07-31T13:45:37.667Z,23.10
2022-07-31T13:48:09.382Z,23.10
2022-07-31T13:50:41.397Z,23.10
2022-07-31T13:53:09.492Z,23.20
2022-07-31T13:55:37.078Z,23.30
2022-07-31T13:58:04.445Z,23.20
2022-07-31T14:00:32.184Z,23.20
2022-07-31T14:02:59.485Z,23.30
2022-07-31T14:05:27.772Z,23.30
2022-07-31T14:07:56.059Z,23.30
2022-07-31T14:10:23.997Z,23.40
2022-07-31T14:12:51.263Z,23.40
2022-07-31T14:15:18.396Z,23.40
2022-07-31T14:17:45.701Z,23.40
2022-07-31T14:20:13.876Z,23.20
2022-07-31T14:22:42.315Z,23.40
2022-07-31T14:25:12.154Z,23.20
2022-07-31T14:27:40.516Z,23.20
2022-07-31T14:30:09.413Z,23.20
2022-07-31T14:32:36.842Z,23.20
2022-07-31T14:35:08.403Z,23.00
2022-07-31T14:37:36.975Z,23.10
2022-07-31T14:40:05.998Z,23.10
2022-07-31T14:42:33.507Z,23.00
2022-07-31T14:45:02.980Z,23.00
2022-07-31T14:47:31.388Z,23.20
2022-07-31T14:50:07.836Z,23.30
2022-07-31T14:52:37.152Z,23.10
2022-07-31T14:55:05.667Z,23.10
2022-07-31T14:57:33.051Z,23.20
2022-07-31T15:00:00.531Z,23.00
2022-07-31T15:02:28.426Z,23.10
2022-07-31T15:04:55.644Z,23.10
2022-07-31T15:07:43.947Z,23.20
2022-07-31T15:10:12.067Z,23.20
2022-07-31T15:12:39.595Z,23.00
2022-07-31T15:15:08.301Z,23.00
2022-07-31T15:17:35.648Z,23.10
2022-07-31T15:20:03.177Z,23.10
2022-07-31T15:22:30.277Z,23.10
2022-07-31T15:24:57.231Z,23.00
2022-07-31T15:27:25.007Z,23.20
2022-07-31T15:30:03.454Z,23.30
2022-07-31T15:32:35.398Z,23.50
2022-07-31T15:35:03.136Z,23.70
2022-07-31T15:37:30.408Z,23.70
2022-07-31T15:40:02.272Z,23.80
2022-07-31T15:42:37.102Z,23.80
2022-07-31T15:45:04.552Z,23.60
2022-07-31T15:47:31.574Z,23.60
2022-07-31T15:49:58.896Z,23.60
2022-07-31T15:52:26.124Z,23.60
2022-07-31T15:54:53.706Z,23.80
2022-07-31T15:57:21.772Z,23.80
2022-07-31T15:59:50.865Z,23.90
2022-07-31T16:02:18.304Z,23.90
2022-07-31T16:04:52.921Z,23.90
2022-07-31T16:08:33.001Z,23.80
2022-07-31T16:10:17.722Z,23.80
2022-07-31T16:12:46.418Z,23.80
2022-07-31T16:15:14.429Z,23.80
2022-07-31T16:17:42.132Z,23.70
2022-07-31T16:20:20.660Z,23.70
2022-07-31T16:22:58.066Z,23.80
2022-07-31T16:25:26.578Z,23.70
2022-07-31T16:27:54.798Z,23.70
2022-07-31T16:30:22.779Z,23.70
2022-07-31T16:32:50.222Z,23.60
2022-07-31T16:35:17.563Z,23.60
2022-07-31T16:37:51.067Z,23.60
2022-07-31T16:40:30.682Z,23.80
2022-07-31T16:43:50.091Z,23.80
2022-07-31T16:45:52.476Z,23.80
2022-07-31T16:48:20.042Z,23.60
2022-07-31T16:50:53.050Z,23.60
2022-07-31T16:54:11.673Z,23.50
2022-07-31T16:56:11.361Z,23.60
2022-07-31T16:58:38.570Z,23.50
2022-07-31T17:01:06.347Z,23.50
2022-07-31T17:04:01.610Z,23.40
2022-07-31T17:06:36.170Z,23.30
2022-07-31T17:09:16.019Z,23.20
2022-07-31T17:11:48.482Z,23.20
2022-07-31T17:14:18.427Z,23.20
2022-07-31T17:16:48.873Z,23.20
2022-07-31T17:19:42.793Z,23.20
2022-07-31T17:22:18.110Z,23.20
2022-07-31T17:24:51.393Z,23.00
2022-07-31T17:27:20.593Z,23.00
2022-07-31T17:29:47.939Z,23.00
2022-07-31T17:32:17.595Z,22.90
2022-07-31T17:34:45.886Z,22.90
2022-07-31T17:37:13.669Z,23.00
2022-07-31T17:39:40.822Z,22.90
2022-07-31T17:42:09.294Z,22.80
2022-07-31T17:44:37.481Z,22.80
2022-07-31T17:47:06.454Z,22.70
2022-07-31T17:49:34.873Z,22.60
2022-07-31T17:52:02.229Z,22.50
2022-07-31T17:54:31.449Z,22.60
2022-07-31T17:57:01.059Z,22.50
2022-07-31T17:59:28.737Z,22.50
2022-07-31T18:02:00.317Z,22.40
2022-07-31T18:04:32.718Z,22.40
2022-07-31T18:07:02.043Z,22.40
2022-07-31T18:09:29.409Z,22.40
2022-07-31T18:11:57.398Z,22.30
2022-07-31T18:14:25.190Z,22.20
2022-07-31T18:16:53.701Z,22.20
2022-07-31T18:19:21.945Z,22.10
2022-07-31T18:21:50.121Z,22.10
2022-07-31T18:24:17.331Z,22.00
2022-07-31T18:26:44.498Z,22.00
2022-07-31T18:29:11.827Z,21.90
2022-07-31T18:31:39.057Z,21.80
2022-07-31T18:34:07.139Z,21.80
2022-07-31T18:36:35.290Z,21.80
2022-07-31T18:39:05.411Z,21.70
2022-07-31T18:41:37.539Z,21.70
2022-07-31T18:44:08.658Z,21.70
2022-07-31T18:46:36.053Z,21.70
2022-07-31T18:49:04.343Z,21.60
2022-07-31T18:51:31.658Z,21.60
2022-07-31T18:53:58.963Z,21.50
2022-07-31T18:56:27.284Z,21.50
2022-07-31T18:58:55.269Z,21.40
2022-07-31T19:01:24.022Z,21.30
2022-07-31T19:03:52.138Z,21.20
2022-07-31T19:06:20.671Z,21.10
2022-07-31T19:08:49.557Z,21.10
2022-07-31T19:11:17.117Z,21.10
2022-07-31T19:13:44.409Z,21.00
2022-07-31T19:16:11.765Z,21.00
2022-07-31T19:18:40.338Z,20.90
2022-07-31T19:21:21.355Z,20.90
2022-07-31T19:23:56.957Z,20.80
2022-07-31T19:26:25.439Z,20.60
2022-07-31T19:28:52.925Z,20.60
2022-07-31T19:31:21.063Z,20.60
2022-07-31T19:33:48.535Z,20.50
2022-07-31T19:36:16.094Z,20.30
2022-07-31T19:38:44.460Z,20.20
2022-07-31T19:41:13.157Z,20.20
2022-07-31T19:43:40.349Z,20.20
2022-07-31T19:46:11.715Z,20.10
2022-07-31T19:48:45.303Z,20.10
2022-07-31T19:51:15.071Z,20.00
2022-07-31T19:53:43.551Z,20.00
2022-07-31T19:56:16.855Z,19.90
2022-07-31T19:58:47.155Z,19.90
2022-07-31T20:01:14.794Z,19.80
2022-07-31T20:03:41.867Z,19.80
2022-07-31T20:06:09.035Z,19.70
2022-07-31T20:08:41.859Z,19.70
2022-07-31T20:11:09.901Z,19.60
2022-07-31T20:13:39.171Z,19.60
2022-07-31T20:16:06.836Z,19.40
2022-07-31T20:18:34.963Z,19.30
2022-07-31T20:21:08.525Z,19.30
2022-07-31T20:23:38.866Z,19.20
2022-07-31T20:26:09.853Z,19.00
2022-07-31T20:28:40.240Z,18.90
2022-07-31T20:31:15.721Z,18.80
2022-07-31T20:33:48.896Z,18.70
2022-07-31T20:36:26.881Z,18.60
2022-07-31T20:38:54.686Z,18.50
2022-07-31T20:41:21.854Z,18.40
2022-07-31T20:43:48.933Z,18.20
2022-07-31T20:46:18.277Z,18.10
2022-07-31T20:48:45.647Z,18.10
2022-07-31T20:51:20.266Z,18.10
2022-07-31T20:53:49.002Z,18.10
2022-07-31T20:56:16.839Z,18.00
2022-07-31T20:58:49.453Z,18.00
2022-07-31T21:01:20.196Z,17.90
2022-07-31T21:03:48.005Z,17.80
2022-07-31T21:06:15.729Z,17.80
2022-07-31T21:08:43.203Z,17.70
2022-07-31T21:11:14.414Z,17.50
2022-07-31T21:14:21.475Z,17.40
2022-07-31T21:17:07.473Z,17.40
2022-07-31T21:19:52.507Z,17.30
2022-07-31T21:22:40.099Z,17.20
2022-07-31T21:25:10.307Z,17.20
2022-07-31T21:27:38.965Z,17.10
2022-07-31T21:30:07.306Z,17.00
2022-07-31T21:32:35.001Z,17.00
2022-07-31T21:35:02.496Z,16.90
2022-07-31T21:37:54.651Z,16.90
2022-07-31T21:40:24.721Z,16.70
2022-07-31T21:42:55.187Z,16.70
2022-07-31T21:45:25.262Z,16.60
2022-07-31T21:48:00.588Z,16.60
2022-07-31T21:50:28.977Z,16.50
2022-07-31T21:52:56.632Z,16.50
2022-07-31T21:55:23.796Z,16.50
2022-07-31T21:57:58.804Z,16.40
2022-07-31T22:00:29.170Z,16.30
2022-07-31T22:03:01.158Z,16.30
2022-07-31T22:05:46.310Z,16.30
2022-07-31T22:08:15.210Z,16.20
2022-07-31T22:10:42.468Z,16.30
2022-07-31T22:13:09.632Z,16.30
2022-07-31T22:15:51.349Z,16.20
2022-07-31T22:18:26.660Z,16.00
2022-07-31T22:20:54.244Z,15.90
2022-07-31T22:23:21.605Z,15.80
2022-07-31T22:25:49.565Z,15.70
2022-07-31T22:28:22.404Z,15.70
2022-07-31T22:30:50.905Z,15.60
2022-07-31T22:33:19.311Z,15.50
2022-07-31T22:35:58.246Z,15.60
2022-07-31T22:38:28.720Z,15.60
2022-07-31T22:40:55.937Z,15.50
2022-07-31T22:44:11.587Z,15.40
2022-07-31T22:46:12.839Z,15.40
2022-07-31T22:48:40.873Z,15.40
2022-07-31T22:51:09.108Z,15.30
2022-07-31T22:53:41.684Z,15.20
2022-07-31T22:56:08.793Z,15.00
2022-07-31T22:58:35.861Z,14.90
2022-07-31T23:01:03.353Z,14.80
2022-07-31T23:03:30.413Z,14.60
2022-07-31T23:06:28.133Z,14.60
2022-07-31T23:08:44.388Z,14.50
2022-07-31T23:11:11.501Z,14.40
2022-07-31T23:13:39.988Z,14.40
2022-07-31T23:16:07.095Z,14.40
2022-07-31T23:18:34.528Z,14.40
2022-07-31T23:21:01.493Z,14.40
2022-07-31T23:23:28.453Z,14.40
2022-07-31T23:25:55.421Z,14.30
2022-07-31T23:28:22.437Z,14.20
2022-07-31T23:30:49.452Z,14.20
2022-07-31T23:33:17.033Z,14.20
2022-07-31T23:35:44.440Z,14.20
2022-07-31T23:38:11.720Z,14.10
2022-07-31T23:40:38.901Z,14.00
2022-07-31T23:43:05.920Z,14.00
2022-07-31T23:45:32.985Z,14.00
2022-07-31T23:48:00.249Z,13.90
2022-07-31T23:50:27.818Z,13.90
2022-07-31T23:52:54.808Z,13.90
2022-07-31T23:55:22.246Z,13.80
2022-07-31T23:57:51.119Z,13.80
